createdAt,value
2019-02-25T00:00:01.702Z,78.02
2019-02-25T00:02:33.309Z,71.50
2019-02-25T00:05:03.307Z,81.97
2019-02-25T00:07:33.345Z,74.17
2019-02-25T00:10:04.778Z,83.95
2019-02-25T00:12:34.962Z,65.42
2019-02-25T00:15:07.672Z,76.72
2019-02-25T00:17:40.072Z,68.87
2019-02-25T00:20:10.886Z,74.58
2019-02-25T00:22:40.875Z,73.83
2019-02-25T00:25:12.249Z,69.82
2019-02-25T00:27:42.166Z,71.07
2019-02-25T00:30:15.770Z,69.42
2019-02-25T00:32:45.726Z,67.95
2019-02-25T00:35:15.671Z,66.35
2019-02-25T00:37:45.664Z,71.02
2019-02-25T00:40:16.546Z,69.75
2019-02-25T00:42:46.491Z,70.28
2019-02-25T00:45:17.180Z,69.92
2019-02-25T00:47:47.116Z,88.62
2019-02-25T00:50:21.955Z,66.55
2019-02-25T00:52:51.879Z,62.75
2019-02-25T00:55:21.911Z,74.05
2019-02-25T00:57:51.950Z,72.67
2019-02-25T01:00:23.067Z,71.50
2019-02-25T01:02:53.287Z,66.42
2019-02-25T01:05:23.772Z,71.35
2019-02-25T01:07:53.721Z,72.97
2019-02-25T01:10:24.876Z,81.05
2019-02-25T01:12:54.847Z,67.62
2019-02-25T01:15:25.841Z,75.40
2019-02-25T01:17:55.800Z,80.05
2019-02-25T01:20:26.756Z,78.65
2019-02-25T01:22:56.725Z,77.05
2019-02-25T01:25:26.663Z,75.55
2019-02-25T01:27:56.703Z,62.95
2019-02-25T01:30:26.951Z,66.10
2019-02-25T01:32:56.927Z,73.78
2019-02-25T01:35:27.061Z,73.85
2019-02-25T01:37:57.010Z,76.10
2019-02-25T01:40:27.872Z,80.20
2019-02-25T01:42:57.896Z,75.78
2019-02-25T01:45:27.950Z,81.47
2019-02-25T01:47:57.965Z,74.90
2019-02-25T01:50:28.014Z,77.22
2019-02-25T01:52:59.209Z,77.00
2019-02-25T01:55:29.659Z,75.32
2019-02-25T01:57:59.651Z,77.15
2019-02-25T02:00:29.707Z,74.72
2019-02-25T02:02:59.696Z,73.72
2019-02-25T02:05:29.808Z,77.25
2019-02-25T02:08:00.147Z,79.12
2019-02-25T02:10:30.216Z,78.52
2019-02-25T02:13:00.171Z,77.53
2019-02-25T02:15:31.186Z,78.85
2019-02-25T02:18:01.222Z,67.62
2019-02-25T02:20:31.163Z,80.92
2019-02-25T02:23:01.106Z,79.72
2019-02-25T02:25:31.435Z,68.67
2019-02-25T02:28:01.443Z,58.28
2019-02-25T02:30:33.843Z,83.30
2019-02-25T02:33:04.145Z,72.92
2019-02-25T02:35:34.408Z,73.07
2019-02-25T02:38:04.534Z,75.37
2019-02-25T02:40:34.656Z,80.28
2019-02-25T02:43:04.676Z,79.77
2019-02-25T02:45:46.452Z,80.40
2019-02-25T02:48:22.201Z,69.77
2019-02-25T02:50:52.242Z,68.15
2019-02-25T02:53:22.264Z,73.45
2019-02-25T02:55:52.386Z,74.53
2019-02-25T02:58:22.398Z,79.27
2019-02-25T03:00:52.516Z,70.12
2019-02-25T03:03:22.423Z,76.22
2019-02-25T03:05:52.447Z,78.00
2019-02-25T03:08:22.718Z,71.60
2019-02-25T03:10:52.756Z,72.37
2019-02-25T03:13:22.756Z,75.28
2019-02-25T03:15:52.688Z,73.80
2019-02-25T03:18:22.639Z,70.78
2019-02-25T03:20:52.578Z,76.28
2019-02-25T03:23:22.852Z,70.95
2019-02-25T03:25:52.987Z,72.55
2019-02-25T03:28:23.068Z,72.97
2019-02-25T03:30:53.090Z,66.17
2019-02-25T03:33:23.265Z,71.57
2019-02-25T03:35:53.228Z,71.00
2019-02-25T03:38:24.144Z,67.67
2019-02-25T03:40:55.077Z,68.85
2019-02-25T03:43:25.083Z,65.52
2019-02-25T03:45:55.071Z,69.45
2019-02-25T03:48:25.404Z,71.00
2019-02-25T03:50:55.344Z,63.90
2019-02-25T03:53:25.333Z,63.13
2019-02-25T03:55:55.355Z,59.30
2019-02-25T03:58:25.781Z,66.15
2019-02-25T04:00:55.813Z,65.65
2019-02-25T04:03:25.862Z,68.47
2019-02-25T04:05:56.281Z,64.12
2019-02-25T04:08:26.399Z,67.17
2019-02-25T04:10:56.357Z,67.10
2019-02-25T04:13:26.371Z,63.92
2019-02-25T04:15:56.597Z,66.37
2019-02-25T04:18:26.606Z,61.40
2019-02-25T04:20:57.693Z,55.88
2019-02-25T04:23:27.630Z,60.70
2019-02-25T04:25:57.631Z,68.45
2019-02-25T04:28:27.694Z,43.55
2019-02-25T04:30:57.858Z,63.28
2019-02-25T04:33:27.864Z,50.60
2019-02-25T04:35:57.928Z,62.17
2019-02-25T04:38:28.144Z,58.20
2019-02-25T04:40:58.375Z,61.77
2019-02-25T04:43:29.522Z,53.65
2019-02-25T04:45:59.542Z,58.00
2019-02-25T04:48:29.558Z,50.70
2019-02-25T04:50:59.479Z,62.48
2019-02-25T04:53:29.560Z,47.45
2019-02-25T04:55:59.533Z,54.03
2019-02-25T04:58:29.498Z,54.55
2019-02-25T05:00:59.526Z,54.48
2019-02-25T05:03:29.503Z,48.55
2019-02-25T05:05:59.519Z,55.58
2019-02-25T05:08:29.588Z,54.67
2019-02-25T05:10:59.523Z,51.80
2019-02-25T05:13:29.517Z,55.90
2019-02-25T05:15:59.874Z,59.18
2019-02-25T05:18:29.926Z,48.68
2019-02-25T05:20:59.883Z,55.12
2019-02-25T05:23:30.180Z,56.23
2019-02-25T05:26:00.152Z,46.40
2019-02-25T05:28:30.214Z,50.75
2019-02-25T05:31:00.212Z,47.90
2019-02-25T05:33:30.177Z,50.95
2019-02-25T05:36:00.182Z,44.65
2019-02-25T05:38:30.273Z,47.13
2019-02-25T05:41:00.295Z,39.18
2019-02-25T05:43:31.222Z,47.83
2019-02-25T05:46:01.243Z,49.30
2019-02-25T05:48:31.199Z,35.75
2019-02-25T05:51:01.237Z,43.23
2019-02-25T05:53:31.176Z,30.45
2019-02-25T05:56:01.444Z,48.02
2019-02-25T05:58:31.516Z,39.13
2019-02-25T06:01:01.664Z,37.17
2019-02-25T06:03:31.631Z,40.10
2019-02-25T06:06:01.840Z,59.03
2019-02-25T06:08:31.870Z,73.52
2019-02-25T06:11:01.951Z,55.83
2019-02-25T06:13:31.964Z,55.43
2019-02-25T06:16:01.955Z,54.45
2019-02-25T06:18:32.072Z,56.20
2019-02-25T06:21:02.047Z,45.33
2019-02-25T06:23:32.062Z,44.45
2019-02-25T06:26:03.218Z,47.78
2019-02-25T06:28:33.160Z,51.90
2019-02-25T06:31:03.197Z,50.08
2019-02-25T06:33:33.339Z,54.88
2019-02-25T06:36:03.347Z,49.03
2019-02-25T06:38:33.458Z,49.73
2019-02-25T06:41:03.473Z,47.15
2019-02-25T06:43:34.383Z,49.55
2019-02-25T06:46:04.428Z,50.52
2019-02-25T06:48:34.444Z,46.83
2019-02-25T06:51:04.471Z,36.45
2019-02-25T06:53:34.459Z,51.28
2019-02-25T06:56:04.398Z,50.63
2019-02-25T06:58:34.574Z,50.20
2019-02-25T07:01:04.639Z,49.35
2019-02-25T07:03:34.770Z,49.60
2019-02-25T07:06:18.509Z,54.05
2019-02-25T07:09:02.469Z,50.20
2019-02-25T07:11:38.712Z,53.83
2019-02-25T07:14:22.398Z,45.65
2019-02-25T07:16:54.011Z,43.55
2019-02-25T07:19:25.670Z,49.93
2019-02-25T07:22:12.637Z,41.20
2019-02-25T07:24:56.734Z,42.53
2019-02-25T07:27:28.390Z,38.95
2019-02-25T07:30:00.038Z,33.48
2019-02-25T07:32:31.752Z,57.45
2019-02-25T07:35:03.416Z,44.18
2019-02-25T07:37:51.826Z,50.83
2019-02-25T07:40:40.243Z,44.30
2019-02-25T07:43:15.529Z,44.55
2019-02-25T07:46:03.516Z,45.30
2019-02-25T07:48:44.346Z,51.88
2019-02-25T07:51:15.997Z,39.13
2019-02-25T07:53:56.926Z,42.48
2019-02-25T07:56:43.937Z,40.73
2019-02-25T07:59:24.912Z,41.05
2019-02-25T08:02:05.199Z,37.48
2019-02-25T08:04:42.706Z,44.75
2019-02-25T08:07:23.355Z,39.88
2019-02-25T08:10:11.125Z,35.45
2019-02-25T08:12:55.026Z,47.53
2019-02-25T08:15:38.731Z,41.53
2019-02-25T08:18:25.526Z,45.05
2019-02-25T08:20:59.778Z,48.40
2019-02-25T08:23:31.546Z,39.00
2019-02-25T08:26:05.975Z,53.33
2019-02-25T08:28:49.873Z,55.38
2019-02-25T08:31:24.537Z,49.33
2019-02-25T08:33:58.867Z,42.70
2019-02-25T08:37:05.403Z,45.63
2019-02-25T08:39:46.248Z,48.00
2019-02-25T08:42:24.711Z,47.08
2019-02-25T08:45:08.874Z,52.05
2019-02-25T08:47:41.595Z,42.00
2019-02-25T08:50:13.971Z,57.65
2019-02-25T08:52:43.988Z,58.00
2019-02-25T08:55:13.897Z,57.03
2019-02-25T08:57:43.851Z,50.73
2019-02-25T09:00:15.077Z,64.20
2019-02-25T09:02:45.085Z,48.80
2019-02-25T09:05:15.236Z,40.35
2019-02-25T09:07:45.282Z,45.80
2019-02-25T09:10:15.323Z,42.73
2019-02-25T09:12:45.260Z,41.33
2019-02-25T09:15:15.615Z,39.40
2019-02-25T09:17:45.230Z,37.95
2019-02-25T09:20:16.170Z,45.15
2019-02-25T09:22:46.126Z,47.15
2019-02-25T09:25:16.443Z,46.13
2019-02-25T09:27:46.460Z,48.92
2019-02-25T09:30:20.288Z,41.02
2019-02-25T09:32:50.242Z,46.60
2019-02-25T09:35:20.467Z,48.58
2019-02-25T09:37:50.480Z,48.87
2019-02-25T09:40:20.409Z,44.58
2019-02-25T09:42:50.419Z,44.65
2019-02-25T09:45:20.634Z,44.58
2019-02-25T09:47:51.466Z,42.55
2019-02-25T09:50:22.714Z,48.95
2019-02-25T09:52:52.747Z,47.60
2019-02-25T09:55:23.700Z,45.45
2019-02-25T09:57:53.897Z,51.63
2019-02-25T10:00:23.925Z,51.75
2019-02-25T10:02:53.884Z,49.77
2019-02-25T10:05:24.110Z,48.58
2019-02-25T10:07:54.128Z,48.28
2019-02-25T10:10:24.187Z,49.35
2019-02-25T10:12:54.214Z,40.03
2019-02-25T10:15:28.624Z,45.95
2019-02-25T10:17:58.652Z,52.38
2019-02-25T10:20:28.666Z,49.27
2019-02-25T10:22:58.608Z,49.03
2019-02-25T10:25:28.680Z,48.48
2019-02-25T10:27:58.789Z,42.43
2019-02-25T10:30:28.850Z,49.23
2019-02-25T10:33:01.917Z,51.28
2019-02-25T10:35:31.861Z,55.48
2019-02-25T10:38:03.214Z,53.05
2019-02-25T10:40:33.264Z,52.93
2019-02-25T10:43:03.372Z,56.68
2019-02-25T10:45:35.229Z,50.92
2019-02-25T10:48:06.713Z,55.25
2019-02-25T10:50:38.667Z,51.55
2019-02-25T10:53:08.352Z,52.15
2019-02-25T10:55:49.328Z,50.25
2019-02-25T10:58:19.559Z,50.88
2019-02-25T11:00:49.583Z,51.23
2019-02-25T11:03:19.938Z,55.90
2019-02-25T11:05:51.791Z,57.85
2019-02-25T11:08:22.829Z,47.73
2019-02-25T11:11:00.377Z,52.43
2019-02-25T11:13:33.653Z,47.27
2019-02-25T11:16:04.050Z,46.08
2019-02-25T11:18:34.055Z,43.08
2019-02-25T11:21:05.920Z,48.70
2019-02-25T11:23:35.699Z,41.30
2019-02-25T11:26:05.926Z,47.27
2019-02-25T11:28:38.163Z,47.20
2019-02-25T11:31:07.698Z,47.85
2019-02-25T11:33:37.762Z,44.45
2019-02-25T11:36:07.692Z,45.55
2019-02-25T11:38:37.811Z,48.45
2019-02-25T11:41:09.481Z,42.90
2019-02-25T11:43:39.596Z,40.92
2019-02-25T11:46:09.572Z,43.15
2019-02-25T11:48:40.401Z,48.48
2019-02-25T11:51:10.440Z,45.65
2019-02-25T11:53:40.380Z,50.65
2019-02-25T11:56:10.527Z,44.30
2019-02-25T11:58:40.478Z,51.33
2019-02-25T12:01:10.621Z,44.90
2019-02-25T12:03:40.659Z,43.95
2019-02-25T12:06:10.676Z,50.00
2019-02-25T12:08:40.608Z,45.63
2019-02-25T12:11:10.787Z,43.83
2019-02-25T12:13:40.814Z,49.93
2019-02-25T12:16:10.801Z,43.85
2019-02-25T12:18:40.819Z,45.00
2019-02-25T12:21:10.760Z,44.67
2019-02-25T12:23:40.687Z,42.62
2019-02-25T12:26:10.679Z,42.20
2019-02-25T12:28:40.756Z,45.17
2019-02-25T12:31:10.730Z,43.42
2019-02-25T12:33:40.747Z,43.00
2019-02-25T12:36:10.671Z,40.20
2019-02-25T12:38:40.658Z,39.45
2019-02-25T12:41:10.620Z,43.78
2019-02-25T12:43:40.569Z,42.40
2019-02-25T12:46:10.515Z,46.90
2019-02-25T12:48:40.443Z,46.63
2019-02-25T12:51:12.274Z,44.58
2019-02-25T12:53:42.214Z,53.42
2019-02-25T12:56:12.256Z,45.67
2019-02-25T12:58:42.269Z,50.92
2019-02-25T13:01:12.263Z,47.98
2019-02-25T13:03:42.244Z,42.40
2019-02-25T13:06:12.183Z,38.63
2019-02-25T13:08:42.134Z,48.55
2019-02-25T13:11:12.219Z,44.85
2019-02-25T13:13:42.252Z,50.08
2019-02-25T13:16:12.349Z,49.15
2019-02-25T13:18:42.260Z,55.67
2019-02-25T13:21:12.511Z,47.03
2019-02-25T13:23:42.557Z,49.50
2019-02-25T13:26:12.559Z,50.25
2019-02-25T13:28:42.576Z,46.28
2019-02-25T13:31:12.636Z,41.92
2019-02-25T13:33:44.149Z,48.20
2019-02-25T13:36:14.088Z,49.10
2019-02-25T13:38:44.181Z,47.65
2019-02-25T13:41:14.194Z,49.42
2019-02-25T13:43:44.234Z,48.52
2019-02-25T13:46:14.277Z,45.63
2019-02-25T13:48:44.560Z,47.75
2019-02-25T13:51:15.558Z,44.58
2019-02-25T13:53:45.800Z,50.58
2019-02-25T13:56:15.878Z,46.15
2019-02-25T13:58:46.064Z,50.10
2019-02-25T14:01:16.262Z,48.50
2019-02-25T14:03:46.320Z,46.90
2019-02-25T14:06:16.359Z,47.48
2019-02-25T14:08:46.551Z,46.18
2019-02-25T14:11:16.558Z,46.68
2019-02-25T14:13:46.642Z,45.10
2019-02-25T14:16:16.897Z,46.10
2019-02-25T14:18:47.243Z,51.02
2019-02-25T14:21:17.493Z,39.78
2019-02-25T14:23:47.596Z,45.95
2019-02-25T14:26:18.922Z,39.70
2019-02-25T14:28:50.081Z,48.73
2019-02-25T14:31:20.180Z,49.33
2019-02-25T14:33:52.329Z,49.83
2019-02-25T14:36:23.640Z,51.58
2019-02-25T14:38:54.221Z,51.55
2019-02-25T14:41:25.366Z,52.65
2019-02-25T14:43:56.211Z,47.93
2019-02-25T14:46:27.083Z,48.83
2019-02-25T14:48:57.129Z,48.80
2019-02-25T14:51:28.173Z,51.60
2019-02-25T14:53:58.364Z,49.00
2019-02-25T14:56:28.652Z,50.23
2019-02-25T14:59:00.615Z,50.75
2019-02-25T15:01:30.772Z,50.10
2019-02-25T15:04:02.198Z,49.85
2019-02-25T15:06:34.754Z,50.12
2019-02-25T15:09:09.759Z,49.58
2019-02-25T15:11:38.753Z,48.05
2019-02-25T15:14:10.666Z,55.33
2019-02-25T15:16:40.745Z,53.15
2019-02-25T15:19:10.754Z,53.28
2019-02-25T15:21:43.026Z,49.00
2019-02-25T15:24:14.276Z,49.55
2019-02-25T15:26:44.142Z,51.68
2019-02-25T15:29:14.164Z,45.63
2019-02-25T15:31:44.395Z,52.20
2019-02-25T15:34:17.192Z,54.15
2019-02-25T15:36:47.929Z,53.52
2019-02-25T15:39:18.219Z,50.60
2019-02-25T15:41:49.169Z,50.80
2019-02-25T15:44:20.198Z,54.45
2019-02-25T15:46:50.552Z,54.85
2019-02-25T15:49:21.742Z,51.42
2019-02-25T15:51:53.218Z,56.45
2019-02-25T15:54:23.340Z,58.58
2019-02-25T15:56:53.379Z,62.13
2019-02-25T15:59:31.935Z,60.83
2019-02-25T16:01:55.700Z,64.27
2019-02-25T16:04:27.854Z,58.63
2019-02-25T16:06:59.655Z,65.78
2019-02-25T16:09:31.538Z,67.35
2019-02-25T16:12:05.433Z,66.28
2019-02-25T16:14:38.797Z,62.33
2019-02-25T16:17:09.587Z,68.50
2019-02-25T16:19:47.389Z,67.37
2019-02-25T16:22:11.861Z,63.92
2019-02-25T16:24:43.562Z,66.50
2019-02-25T16:27:14.277Z,60.12
2019-02-25T16:29:44.668Z,66.53
2019-02-25T16:32:15.344Z,59.53
2019-02-25T16:34:46.480Z,60.65
2019-02-25T16:37:17.698Z,66.20
2019-02-25T16:39:48.192Z,61.92
2019-02-25T16:42:18.402Z,65.65
2019-02-25T16:44:48.429Z,62.67
2019-02-25T16:47:31.885Z,62.50
2019-02-25T16:49:51.934Z,68.57
2019-02-25T16:52:24.482Z,66.95
2019-02-25T16:54:54.644Z,64.87
2019-02-25T16:57:25.131Z,68.22
2019-02-25T16:59:57.305Z,68.40
2019-02-25T17:02:27.516Z,72.37
2019-02-25T17:04:58.854Z,64.53
2019-02-25T17:07:28.878Z,64.32
2019-02-25T17:09:59.439Z,70.22
2019-02-25T17:12:31.628Z,68.25
2019-02-25T17:15:02.871Z,68.90
2019-02-25T17:17:34.603Z,75.10
2019-02-25T17:20:10.515Z,74.62
2019-02-25T17:22:40.286Z,76.00
2019-02-25T17:25:12.278Z,75.60
2019-02-25T17:27:42.408Z,77.10
2019-02-25T17:30:19.606Z,81.55
2019-02-25T17:32:49.751Z,77.70
2019-02-25T17:35:23.571Z,72.80
2019-02-25T17:37:53.825Z,78.05
2019-02-25T17:40:24.781Z,81.17
2019-02-25T17:42:56.306Z,84.70
2019-02-25T17:45:29.943Z,89.55
2019-02-25T17:48:03.195Z,87.70
2019-02-25T17:50:34.579Z,80.90
2019-02-25T17:53:05.121Z,77.37
2019-02-25T17:55:36.339Z,83.58
2019-02-25T17:58:06.632Z,78.15
2019-02-25T18:00:42.347Z,88.47
2019-02-25T18:03:12.661Z,90.85
2019-02-25T18:05:43.404Z,85.28
2019-02-25T18:08:15.375Z,85.80
2019-02-25T18:10:46.025Z,89.83
2019-02-25T18:13:17.237Z,85.80
2019-02-25T18:15:49.293Z,93.65
2019-02-25T18:18:20.252Z,95.07
2019-02-25T18:20:52.850Z,94.50
2019-02-25T18:23:22.864Z,91.80
2019-02-25T18:25:53.639Z,95.32
2019-02-25T18:28:24.779Z,90.67
2019-02-25T18:30:55.438Z,94.70
2019-02-25T18:33:27.400Z,94.15
2019-02-25T18:35:58.199Z,97.00
2019-02-25T18:38:29.565Z,93.52
2019-02-25T18:41:02.078Z,88.05
2019-02-25T18:43:32.773Z,93.05
2019-02-25T18:46:04.911Z,96.37
2019-02-25T18:48:34.615Z,94.65
2019-02-25T18:51:06.479Z,105.58
2019-02-25T18:53:37.559Z,105.72
2019-02-25T18:56:11.334Z,105.75
2019-02-25T18:58:41.253Z,109.90
2019-02-25T19:01:13.036Z,115.47
2019-02-25T19:03:43.147Z,113.55
2019-02-25T19:06:14.587Z,110.63
2019-02-25T19:08:45.334Z,119.17
2019-02-25T19:11:16.909Z,113.92
2019-02-25T19:13:49.862Z,111.17
2019-02-25T19:16:20.584Z,114.75
2019-02-25T19:18:51.809Z,107.85
2019-02-25T19:21:23.277Z,110.42
2019-02-25T19:23:53.556Z,121.80
2019-02-25T19:26:23.585Z,117.28
2019-02-25T19:28:54.710Z,112.80
2019-02-25T19:31:26.063Z,109.20
2019-02-25T19:34:00.267Z,116.73
2019-02-25T19:36:29.716Z,115.72
2019-02-25T19:39:00.185Z,111.85
2019-02-25T19:41:30.524Z,112.60
2019-02-25T19:44:03.304Z,112.92
2019-02-25T19:46:32.229Z,111.85
2019-02-25T19:49:02.290Z,112.45
2019-02-25T19:51:32.427Z,110.45
2019-02-25T19:54:06.723Z,122.90
2019-02-25T19:56:34.999Z,123.60
2019-02-25T19:59:05.663Z,118.90
2019-02-25T20:01:36.715Z,111.92
2019-02-25T20:04:08.993Z,118.15
2019-02-25T20:06:38.439Z,119.00
2019-02-25T20:09:09.808Z,120.25
2019-02-25T20:11:42.815Z,120.00
2019-02-25T20:14:16.504Z,125.55
2019-02-25T20:16:44.523Z,110.70
2019-02-25T20:19:16.603Z,118.10
2019-02-25T20:21:48.077Z,114.95
2019-02-25T20:24:19.147Z,120.53
2019-02-25T20:26:52.624Z,125.47
2019-02-25T20:29:21.462Z,125.38
2019-02-25T20:31:51.845Z,117.62
2019-02-25T20:34:25.151Z,120.33
2019-02-25T20:36:55.465Z,132.67
2019-02-25T20:39:26.498Z,127.22
2019-02-25T20:41:58.611Z,120.77
2019-02-25T20:44:30.160Z,126.50
2019-02-25T20:47:01.753Z,116.12
2019-02-25T20:49:32.350Z,111.15
2019-02-25T20:52:02.329Z,122.92
2019-02-25T20:54:32.387Z,122.80
2019-02-25T20:57:02.455Z,121.07
2019-02-25T20:59:34.750Z,113.40
2019-02-25T21:02:04.784Z,112.72
2019-02-25T21:04:36.757Z,115.22
2019-02-25T21:07:08.871Z,116.17
2019-02-25T21:09:40.553Z,112.20
2019-02-25T21:12:13.209Z,119.72
2019-02-25T21:14:45.029Z,120.30
2019-02-25T21:17:15.188Z,103.42
2019-02-25T21:19:45.189Z,116.45
2019-02-25T21:22:15.115Z,115.37
2019-02-25T21:24:45.636Z,114.97
2019-02-25T21:27:15.661Z,122.70
2019-02-25T21:29:45.729Z,117.22
2019-02-25T21:32:17.400Z,115.42
2019-02-25T21:34:52.468Z,121.45
2019-02-25T21:37:21.367Z,115.40
2019-02-25T21:39:52.864Z,118.08
2019-02-25T21:42:24.577Z,117.93
2019-02-25T21:44:55.153Z,115.62
2019-02-25T21:47:26.880Z,121.45
2019-02-25T21:49:59.153Z,119.77
2019-02-25T21:52:32.578Z,119.10
2019-02-25T21:55:02.551Z,130.85
2019-02-25T21:57:35.550Z,118.22
2019-02-25T22:00:14.878Z,122.05
2019-02-25T22:02:45.854Z,125.60
2019-02-25T22:05:19.012Z,116.35
2019-02-25T22:07:52.387Z,121.62
2019-02-25T22:10:20.943Z,126.67
2019-02-25T22:12:50.979Z,118.65
2019-02-25T22:15:22.410Z,118.60
2019-02-25T22:17:53.549Z,120.02
2019-02-25T22:20:25.177Z,122.62
2019-02-25T22:22:57.460Z,113.22
2019-02-25T22:25:26.999Z,122.65
2019-02-25T22:27:58.900Z,116.37
2019-02-25T22:30:28.690Z,116.70
2019-02-25T22:33:02.466Z,110.50
2019-02-25T22:35:35.519Z,110.57
2019-02-25T22:38:04.145Z,113.65
2019-02-25T22:40:36.215Z,113.35
2019-02-25T22:43:05.824Z,107.50
2019-02-25T22:45:37.559Z,99.80
2019-02-25T22:48:07.453Z,105.60
2019-02-25T22:50:37.811Z,106.40
2019-02-25T22:53:08.795Z,109.87
2019-02-25T22:55:42.090Z,101.62
2019-02-25T22:58:12.730Z,106.47
2019-02-25T23:00:52.210Z,96.95
2019-02-25T23:03:25.663Z,98.22
2019-02-25T23:05:55.264Z,96.63
2019-02-25T23:08:26.114Z,99.90
2019-02-25T23:10:56.493Z,97.72
2019-02-25T23:13:28.118Z,95.65
2019-02-25T23:15:58.259Z,103.30
2019-02-25T23:18:29.956Z,95.97
2019-02-25T23:21:02.703Z,101.33
2019-02-25T23:23:33.487Z,104.53
2019-02-25T23:26:03.951Z,92.08
2019-02-25T23:28:33.908Z,94.50
2019-02-25T23:31:03.922Z,82.02
2019-02-25T23:33:33.896Z,92.90
2019-02-25T23:36:03.872Z,95.67
2019-02-25T23:38:33.939Z,92.37
2019-02-25T23:41:05.411Z,87.72
2019-02-25T23:43:37.871Z,93.22
2019-02-25T23:46:08.814Z,91.60
2019-02-25T23:48:41.317Z,92.17
2019-02-25T23:51:12.106Z,96.57
2019-02-25T23:53:42.130Z,89.85
2019-02-25T23:56:14.104Z,94.47
2019-02-25T23:58:47.154Z,92.35
